sensor_id;sensor_type;location;lat;lon;timestamp;pressure;altitude;pressure_sealevel;temperature
24714;BMP280;12820;51.580;5.010;2022-09-16T00:03:58;101110.91;;;15.92
24714;BMP280;12820;51.580;5.010;2022-09-16T00:09:00;101124.34;;;15.96
24714;BMP280;12820;51.580;5.010;2022-09-16T00:14:03;101097.44;;;15.90
24714;BMP280;12820;51.580;5.010;2022-09-16T00:19:05;101104.28;;;15.88
24714;BMP280;12820;51.580;5.010;2022-09-16T00:24:09;101096.84;;;15.82
24714;BMP280;12820;51.580;5.010;2022-09-16T00:29:14;101092.84;;;15.76
24714;BMP280;12820;51.580;5.010;2022-09-16T00:34:17;101088.88;;;15.67
24714;BMP280;12820;51.580;5.010;2022-09-16T00:39:19;101094.13;;;15.62
24714;BMP280;12820;51.580;5.010;2022-09-16T00:45:03;101089.34;;;15.53
24714;BMP280;12820;51.580;5.010;2022-09-16T00:55:19;101089.97;;;15.32
24714;BMP280;12820;51.580;5.010;2022-09-16T01:00:22;101082.63;;;15.24
24714;BMP280;12820;51.580;5.010;2022-09-16T01:05:25;101080.38;;;15.15
24714;BMP280;12820;51.580;5.010;2022-09-16T01:10:27;101084.88;;;15.06
24714;BMP280;12820;51.580;5.010;2022-09-16T01:15:52;101090.94;;;14.99
24714;BMP280;12820;51.580;5.010;2022-09-16T01:26:47;101096.25;;;14.90
24714;BMP280;12820;51.580;5.010;2022-09-16T01:37:01;101103.81;;;14.93
24714;BMP280;12820;51.580;5.010;2022-09-16T01:42:11;101091.09;;;14.94
24714;BMP280;12820;51.580;5.010;2022-09-16T01:53:12;101082.47;;;15.01
24714;BMP280;12820;51.580;5.010;2022-09-16T01:58:24;101090.84;;;15.03
24714;BMP280;12820;51.580;5.010;2022-09-16T02:03:29;101084.97;;;15.03
24714;BMP280;12820;51.580;5.010;2022-09-16T02:08:52;101097.50;;;15.07
24714;BMP280;12820;51.580;5.010;2022-09-16T02:14:22;101098.25;;;15.09
24714;BMP280;12820;51.580;5.010;2022-09-16T02:19:29;101094.00;;;15.11
24714;BMP280;12820;51.580;5.010;2022-09-16T02:24:33;101091.38;;;15.14
24714;BMP280;12820;51.580;5.010;2022-09-16T02:29:40;101098.91;;;15.17
24714;BMP280;12820;51.580;5.010;2022-09-16T02:34:46;101100.50;;;15.19
24714;BMP280;12820;51.580;5.010;2022-09-16T02:39:52;101101.22;;;15.23
24714;BMP280;12820;51.580;5.010;2022-09-16T02:44:57;101103.69;;;15.26
24714;BMP280;12820;51.580;5.010;2022-09-16T02:50:08;101105.25;;;15.29
24714;BMP280;12820;51.580;5.010;2022-09-16T03:00:44;101097.56;;;15.32
24714;BMP280;12820;51.580;5.010;2022-09-16T03:06:10;101095.88;;;15.33
24714;BMP280;12820;51.580;5.010;2022-09-16T03:11:25;101103.53;;;15.31
24714;BMP280;12820;51.580;5.010;2022-09-16T03:22:07;101091.00;;;15.27
24714;BMP280;12820;51.580;5.010;2022-09-16T03:27:14;101097.78;;;15.25
24714;BMP280;12820;51.580;5.010;2022-09-16T03:32:27;101097.91;;;15.22
24714;BMP280;12820;51.580;5.010;2022-09-16T03:37:32;101095.41;;;15.21
24714;BMP280;12820;51.580;5.010;2022-09-16T03:42:41;101101.28;;;15.21
24714;BMP280;12820;51.580;5.010;2022-09-16T03:47:44;101099.59;;;15.22
24714;BMP280;12820;51.580;5.010;2022-09-16T03:52:47;101103.75;;;15.23
24714;BMP280;12820;51.580;5.010;2022-09-16T03:57:49;101102.06;;;15.23
24714;BMP280;12820;51.580;5.010;2022-09-16T04:02:53;101091.91;;;15.25
24714;BMP280;12820;51.580;5.010;2022-09-16T04:07:56;101091.03;;;15.26
24714;BMP280;12820;51.580;5.010;2022-09-16T04:12:58;101100.28;;;15.27
24714;BMP280;12820;51.580;5.010;2022-09-16T04:18:00;101099.31;;;15.30
24714;BMP280;12820;51.580;5.010;2022-09-16T04:23:02;101102.69;;;15.31
24714;BMP280;12820;51.580;5.010;2022-09-16T04:28:04;101108.59;;;15.31
24714;BMP280;12820;51.580;5.010;2022-09-16T04:33:06;101111.88;;;15.33
24714;BMP280;12820;51.580;5.010;2022-09-16T04:38:08;101111.03;;;15.34
24714;BMP280;12820;51.580;5.010;2022-09-16T04:43:10;101108.50;;;15.34
24714;BMP280;12820;51.580;5.010;2022-09-16T04:48:12;101110.16;;;15.35
24714;BMP280;12820;51.580;5.010;2022-09-16T04:53:14;101100.84;;;15.36
24714;BMP280;12820;51.580;5.010;2022-09-16T04:58:16;101105.09;;;15.35
24714;BMP280;12820;51.580;5.010;2022-09-16T05:03:18;101125.34;;;15.35
24714;BMP280;12820;51.580;5.010;2022-09-16T05:08:20;101140.56;;;15.35
24714;BMP280;12820;51.580;5.010;2022-09-16T05:13:22;101119.44;;;15.35
24714;BMP280;12820;51.580;5.010;2022-09-16T05:18:24;101113.59;;;15.33
24714;BMP280;12820;51.580;5.010;2022-09-16T05:23:26;101103.53;;;15.31
24714;BMP280;12820;51.580;5.010;2022-09-16T05:28:28;101106.09;;;15.30
24714;BMP280;12820;51.580;5.010;2022-09-16T05:33:30;101096.94;;;15.26
24714;BMP280;12820;51.580;5.010;2022-09-16T05:38:33;101101.16;;;15.26
24714;BMP280;12820;51.580;5.010;2022-09-16T05:43:36;101104.56;;;15.25
24714;BMP280;12820;51.580;5.010;2022-09-16T05:48:38;101123.97;;;15.24
24714;BMP280;12820;51.580;5.010;2022-09-16T05:53:40;101130.69;;;15.27
24714;BMP280;12820;51.580;5.010;2022-09-16T05:58:42;101124.78;;;15.26
24714;BMP280;12820;51.580;5.010;2022-09-16T06:03:46;101108.72;;;15.27
24714;BMP280;12820;51.580;5.010;2022-09-16T06:08:49;101108.75;;;15.26
24714;BMP280;12820;51.580;5.010;2022-09-16T06:13:54;101110.44;;;15.27
24714;BMP280;12820;51.580;5.010;2022-09-16T06:18:56;101122.13;;;15.30
24714;BMP280;12820;51.580;5.010;2022-09-16T06:23:58;101123.53;;;15.40
24714;BMP280;12820;51.580;5.010;2022-09-16T06:29:00;101128.44;;;15.45
24714;BMP280;12820;51.580;5.010;2022-09-16T06:34:03;101130.97;;;15.45
24714;BMP280;12820;51.580;5.010;2022-09-16T06:39:06;101131.66;;;15.51
24714;BMP280;12820;51.580;5.010;2022-09-16T06:44:08;101131.09;;;15.68
24714;BMP280;12820;51.580;5.010;2022-09-16T06:49:10;101134.00;;;15.83
24714;BMP280;12820;51.580;5.010;2022-09-16T06:54:13;101147.38;;;15.88
24714;BMP280;12820;51.580;5.010;2022-09-16T06:59:15;101142.34;;;15.87
24714;BMP280;12820;51.580;5.010;2022-09-16T07:04:17;101142.34;;;15.87
24714;BMP280;12820;51.580;5.010;2022-09-16T07:09:19;101135.53;;;15.89
24714;BMP280;12820;51.580;5.010;2022-09-16T07:14:21;101139.69;;;15.90
24714;BMP280;12820;51.580;5.010;2022-09-16T07:19:25;101150.75;;;15.89
24714;BMP280;12820;51.580;5.010;2022-09-16T07:24:27;101139.00;;;15.85
24714;BMP280;12820;51.580;5.010;2022-09-16T07:29:29;101136.53;;;15.83
24714;BMP280;12820;51.580;5.010;2022-09-16T07:34:31;101140.69;;;15.86
24714;BMP280;12820;51.580;5.010;2022-09-16T07:39:33;101146.25;;;15.98
24714;BMP280;12820;51.580;5.010;2022-09-16T07:44:35;101151.13;;;16.04
24714;BMP280;12820;51.580;5.010;2022-09-16T07:49:37;101150.09;;;16.09
24714;BMP280;12820;51.580;5.010;2022-09-16T07:54:39;101150.75;;;16.16
24714;BMP280;12820;51.580;5.010;2022-09-16T07:59:41;101155.53;;;16.24
24714;BMP280;12820;51.580;5.010;2022-09-16T08:04:49;101167.34;;;16.25
24714;BMP280;12820;51.580;5.010;2022-09-16T08:09:51;101174.06;;;16.26
24714;BMP280;12820;51.580;5.010;2022-09-16T08:14:54;101174.00;;;16.28
24714;BMP280;12820;51.580;5.010;2022-09-16T08:19:56;101169.31;;;16.41
24714;BMP280;12820;51.580;5.010;2022-09-16T08:24:58;101168.25;;;16.73
24714;BMP280;12820;51.580;5.010;2022-09-16T08:30:02;101177.44;;;17.25
24714;BMP280;12820;51.580;5.010;2022-09-16T08:35:06;101207.28;;;17.41
24714;BMP280;12820;51.580;5.010;2022-09-16T08:40:14;101196.88;;;17.26
24714;BMP280;12820;51.580;5.010;2022-09-16T08:50:31;101198.34;;;17.31
24714;BMP280;12820;51.580;5.010;2022-09-16T08:55:39;101192.47;;;17.31
24714;BMP280;12820;51.580;5.010;2022-09-16T09:00:44;101187.78;;;17.19
24714;BMP280;12820;51.580;5.010;2022-09-16T09:05:53;101194.94;;;17.08
24714;BMP280;12820;51.580;5.010;2022-09-16T09:11:09;101191.22;;;17.18
24714;BMP280;12820;51.580;5.010;2022-09-16T09:16:53;101184.38;;;17.42
24714;BMP280;12820;51.580;5.010;2022-09-16T09:27:18;101182.25;;;17.98
24714;BMP280;12820;51.580;5.010;2022-09-16T09:43:23;101218.50;;;18.66
24714;BMP280;12820;51.580;5.010;2022-09-16T09:48:36;101213.97;;;18.52
24714;BMP280;12820;51.580;5.010;2022-09-16T09:53:43;101224.28;;;18.50
24714;BMP280;12820;51.580;5.010;2022-09-16T10:03:55;101192.63;;;18.35
24714;BMP280;12820;51.580;5.010;2022-09-16T10:09:00;101205.03;;;18.64
24714;BMP280;12820;51.580;5.010;2022-09-16T10:14:02;101202.78;;;18.97
24714;BMP280;12820;51.580;5.010;2022-09-16T10:19:17;101201.16;;;18.94
24714;BMP280;12820;51.580;5.010;2022-09-16T10:24:33;101222.38;;;18.75
24714;BMP280;12820;51.580;5.010;2022-09-16T10:29:35;101215.72;;;18.50
24714;BMP280;12820;51.580;5.010;2022-09-16T10:34:48;101208.97;;;18.30
24714;BMP280;12820;51.580;5.010;2022-09-16T10:40:16;101211.22;;;18.16
24714;BMP280;12820;51.580;5.010;2022-09-16T10:45:49;101209.44;;;18.18
24714;BMP280;12820;51.580;5.010;2022-09-16T10:51:54;101197.88;;;18.52
24714;BMP280;12820;51.580;5.010;2022-09-16T10:57:31;101198.59;;;19.89
24714;BMP280;12820;51.580;5.010;2022-09-16T11:09:08;101174.28;;;22.81
24714;BMP280;12820;51.580;5.010;2022-09-16T11:14:47;101188.91;;;23.76
24714;BMP280;12820;51.580;5.010;2022-09-16T11:25:34;101180.88;;;25.81
24714;BMP280;12820;51.580;5.010;2022-09-16T11:30:48;101186.84;;;25.94
24714;BMP280;12820;51.580;5.010;2022-09-16T11:35:59;101202.31;;;26.39
24714;BMP280;12820;51.580;5.010;2022-09-16T11:46:45;101187.25;;;27.66
24714;BMP280;12820;51.580;5.010;2022-09-16T11:52:00;101186.09;;;27.49
24714;BMP280;12820;51.580;5.010;2022-09-16T11:57:22;101199.34;;;27.45
24714;BMP280;12820;51.580;5.010;2022-09-16T12:02:34;101186.88;;;27.07
24714;BMP280;12820;51.580;5.010;2022-09-16T12:07:51;101191.25;;;26.27
24714;BMP280;12820;51.580;5.010;2022-09-16T12:13:08;101179.97;;;27.18
24714;BMP280;12820;51.580;5.010;2022-09-16T12:18:26;101172.94;;;26.75
24714;BMP280;12820;51.580;5.010;2022-09-16T12:23:35;101187.94;;;26.25
24714;BMP280;12820;51.580;5.010;2022-09-16T12:28:45;101161.66;;;26.66
24714;BMP280;12820;51.580;5.010;2022-09-16T12:33:58;101157.97;;;26.91
24714;BMP280;12820;51.580;5.010;2022-09-16T12:39:02;101152.50;;;26.51
24714;BMP280;12820;51.580;5.010;2022-09-16T12:49:56;101185.56;;;28.50
24714;BMP280;12820;51.580;5.010;2022-09-16T13:00:49;101222.72;;;26.19
24714;BMP280;12820;51.580;5.010;2022-09-16T13:05:54;101218.47;;;24.74
24714;BMP280;12820;51.580;5.010;2022-09-16T13:11:01;101214.16;;;23.70
24714;BMP280;12820;51.580;5.010;2022-09-16T13:16:33;101228.38;;;22.77
24714;BMP280;12820;51.580;5.010;2022-09-16T13:21:41;101223.66;;;22.11
24714;BMP280;12820;51.580;5.010;2022-09-16T13:26:45;101218.00;;;21.74
24714;BMP280;12820;51.580;5.010;2022-09-16T13:31:48;101219.72;;;21.44
24714;BMP280;12820;51.580;5.010;2022-09-16T13:36:50;101216.66;;;21.21
24714;BMP280;12820;51.580;5.010;2022-09-16T13:41:52;101218.84;;;21.12
24714;BMP280;12820;51.580;5.010;2022-09-16T13:52:12;101231.84;;;20.74
24714;BMP280;12820;51.580;5.010;2022-09-16T14:08:47;101194.44;;;24.99
24714;BMP280;12820;51.580;5.010;2022-09-16T14:14:03;101186.56;;;28.89
24714;BMP280;12820;51.580;5.010;2022-09-16T14:19:22;101176.13;;;31.16
24714;BMP280;12820;51.580;5.010;2022-09-16T14:24:33;101178.09;;;29.74
24714;BMP280;12820;51.580;5.010;2022-09-16T14:29:35;101171.75;;;28.29
24714;BMP280;12820;51.580;5.010;2022-09-16T14:34:37;101173.00;;;29.93
24714;BMP280;12820;51.580;5.010;2022-09-16T14:39:40;101169.66;;;31.91
24714;BMP280;12820;51.580;5.010;2022-09-16T14:44:50;101159.72;;;31.51
24714;BMP280;12820;51.580;5.010;2022-09-16T14:49:56;101145.91;;;31.15
24714;BMP280;12820;51.580;5.010;2022-09-16T14:55:06;101145.34;;;30.49
24714;BMP280;12820;51.580;5.010;2022-09-16T15:00:13;101154.66;;;29.17
24714;BMP280;12820;51.580;5.010;2022-09-16T15:05:23;101160.59;;;27.87
24714;BMP280;12820;51.580;5.010;2022-09-16T15:10:27;101154.41;;;27.68
24714;BMP280;12820;51.580;5.010;2022-09-16T15:15:55;101159.44;;;28.52
24714;BMP280;12820;51.580;5.010;2022-09-16T15:21:12;101165.19;;;27.73
24714;BMP280;12820;51.580;5.010;2022-09-16T15:26:21;101175.97;;;26.70
24714;BMP280;12820;51.580;5.010;2022-09-16T15:31:35;101174.72;;;25.71
24714;BMP280;12820;51.580;5.010;2022-09-16T15:36:40;101172.88;;;24.76
24714;BMP280;12820;51.580;5.010;2022-09-16T15:41:42;101175.81;;;23.94
24714;BMP280;12820;51.580;5.010;2022-09-16T15:46:45;101196.38;;;23.26
24714;BMP280;12820;51.580;5.010;2022-09-16T15:51:48;101202.28;;;22.71
24714;BMP280;12820;51.580;5.010;2022-09-16T16:07:43;101196.94;;;22.60
24714;BMP280;12820;51.580;5.010;2022-09-16T16:12:48;101250.69;;;22.16
24714;BMP280;12820;51.580;5.010;2022-09-16T16:17:52;101215.47;;;21.74
24714;BMP280;12820;51.580;5.010;2022-09-16T16:22:55;101213.63;;;21.30
24714;BMP280;12820;51.580;5.010;2022-09-16T16:27:57;101218.69;;;20.82
24714;BMP280;12820;51.580;5.010;2022-09-16T16:32:59;101209.84;;;20.37
24714;BMP280;12820;51.580;5.010;2022-09-16T16:38:01;101206.53;;;20.01
24714;BMP280;12820;51.580;5.010;2022-09-16T16:43:03;101221.75;;;19.66
24714;BMP280;12820;51.580;5.010;2022-09-16T16:48:05;101225.13;;;19.29
24714;BMP280;12820;51.580;5.010;2022-09-16T16:53:07;101227.44;;;18.96
24714;BMP280;12820;51.580;5.010;2022-09-16T16:58:09;101237.69;;;18.74
24714;BMP280;12820;51.580;5.010;2022-09-16T17:03:11;101239.94;;;18.60
24714;BMP280;12820;51.580;5.010;2022-09-16T17:08:13;101229.00;;;18.37
24714;BMP280;12820;51.580;5.010;2022-09-16T17:13:15;101223.19;;;18.13
24714;BMP280;12820;51.580;5.010;2022-09-16T17:18:17;101229.22;;;17.90
24714;BMP280;12820;51.580;5.010;2022-09-16T17:23:19;101233.50;;;17.65
24714;BMP280;12820;51.580;5.010;2022-09-16T17:28:21;101257.19;;;17.43
24714;BMP280;12820;51.580;5.010;2022-09-16T17:33:24;101270.47;;;17.27
24714;BMP280;12820;51.580;5.010;2022-09-16T17:38:26;101267.69;;;17.11
24714;BMP280;12820;51.580;5.010;2022-09-16T17:43:28;101263.94;;;16.97
24714;BMP280;12820;51.580;5.010;2022-09-16T17:48:33;101266.13;;;16.82
24714;BMP280;12820;51.580;5.010;2022-09-16T17:53:38;101264.09;;;16.66
24714;BMP280;12820;51.580;5.010;2022-09-16T17:58:43;101259.50;;;16.51
24714;BMP280;12820;51.580;5.010;2022-09-16T18:03:47;101259.94;;;16.38
24714;BMP280;12820;51.580;5.010;2022-09-16T18:08:50;101255.25;;;16.26
24714;BMP280;12820;51.580;5.010;2022-09-16T18:13:57;101252.25;;;16.13
24714;BMP280;12820;51.580;5.010;2022-09-16T18:19:00;101276.25;;;16.03
24714;BMP280;12820;51.580;5.010;2022-09-16T18:24:04;101283.97;;;15.99
24714;BMP280;12820;51.580;5.010;2022-09-16T18:29:07;101282.47;;;15.92
24714;BMP280;12820;51.580;5.010;2022-09-16T18:34:20;101323.19;;;15.86
24714;BMP280;12820;51.580;5.010;2022-09-16T18:39:23;101303.06;;;15.80
24714;BMP280;12820;51.580;5.010;2022-09-16T18:44:25;101273.78;;;15.70
24714;BMP280;12820;51.580;5.010;2022-09-16T18:49:27;101282.50;;;15.61
24714;BMP280;12820;51.580;5.010;2022-09-16T18:54:30;101287.81;;;15.52
24714;BMP280;12820;51.580;5.010;2022-09-16T18:59:33;101288.06;;;15.43
24714;BMP280;12820;51.580;5.010;2022-09-16T19:04:39;101309.31;;;15.38
24714;BMP280;12820;51.580;5.010;2022-09-16T19:09:41;101339.78;;;15.36
24714;BMP280;12820;51.580;5.010;2022-09-16T19:14:45;101306.84;;;15.36
24714;BMP280;12820;51.580;5.010;2022-09-16T19:19:47;101310.25;;;15.35
24714;BMP280;12820;51.580;5.010;2022-09-16T19:24:51;101293.34;;;15.36
24714;BMP280;12820;51.580;5.010;2022-09-16T19:29:55;101297.63;;;15.32
24714;BMP280;12820;51.580;5.010;2022-09-16T19:34:57;101295.31;;;15.25
24714;BMP280;12820;51.580;5.010;2022-09-16T19:39:59;101303.88;;;15.21
24714;BMP280;12820;51.580;5.010;2022-09-16T19:45:01;101298.88;;;15.18
24714;BMP280;12820;51.580;5.010;2022-09-16T19:50:03;101327.63;;;15.16
24714;BMP280;12820;51.580;5.010;2022-09-16T19:55:07;101314.19;;;15.14
24714;BMP280;12820;51.580;5.010;2022-09-16T20:00:10;101333.72;;;15.09
24714;BMP280;12820;51.580;5.010;2022-09-16T20:05:15;101325.41;;;15.04
24714;BMP280;12820;51.580;5.010;2022-09-16T20:10:19;101317.03;;;15.02
24714;BMP280;12820;51.580;5.010;2022-09-16T20:15:21;101315.34;;;15.01
24714;BMP280;12820;51.580;5.010;2022-09-16T20:20:23;101317.06;;;14.99
24714;BMP280;12820;51.580;5.010;2022-09-16T20:25:25;101313.81;;;14.94
24714;BMP280;12820;51.580;5.010;2022-09-16T20:30:28;101310.53;;;14.90
24714;BMP280;12820;51.580;5.010;2022-09-16T20:35:31;101315.72;;;14.85
24714;BMP280;12820;51.580;5.010;2022-09-16T20:40:34;101325.06;;;14.82
24714;BMP280;12820;51.580;5.010;2022-09-16T20:45:37;101325.94;;;14.81
24714;BMP280;12820;51.580;5.010;2022-09-16T20:50:39;101335.31;;;14.77
24714;BMP280;12820;51.580;5.010;2022-09-16T20:55:42;101342.94;;;14.76
24714;BMP280;12820;51.580;5.010;2022-09-16T21:00:44;101342.97;;;14.75
24714;BMP280;12820;51.580;5.010;2022-09-16T21:05:46;101354.00;;;14.71
24714;BMP280;12820;51.580;5.010;2022-09-16T21:10:48;101360.81;;;14.69
24714;BMP280;12820;51.580;5.010;2022-09-16T21:15:55;101355.75;;;14.69
24714;BMP280;12820;51.580;5.010;2022-09-16T21:21:15;101343.16;;;14.66
24714;BMP280;12820;51.580;5.010;2022-09-16T21:26:33;101334.81;;;14.62
24714;BMP280;12820;51.580;5.010;2022-09-16T21:31:37;101338.25;;;14.60
24714;BMP280;12820;51.580;5.010;2022-09-16T21:36:39;101343.34;;;14.58
24714;BMP280;12820;51.580;5.010;2022-09-16T21:41:42;101353.47;;;14.58
24714;BMP280;12820;51.580;5.010;2022-09-16T21:46:45;101351.78;;;14.57
24714;BMP280;12820;51.580;5.010;2022-09-16T21:51:48;101358.66;;;14.53
24714;BMP280;12820;51.580;5.010;2022-09-16T21:56:50;101365.50;;;14.48
24714;BMP280;12820;51.580;5.010;2022-09-16T22:01:52;101368.97;;;14.44
24714;BMP280;12820;51.580;5.010;2022-09-16T22:06:54;101363.16;;;14.40
24714;BMP280;12820;51.580;5.010;2022-09-16T22:11:57;101380.88;;;14.39
24714;BMP280;12820;51.580;5.010;2022-09-16T22:16:59;101385.94;;;14.39
24714;BMP280;12820;51.580;5.010;2022-09-16T22:22:01;101390.13;;;14.40
24714;BMP280;12820;51.580;5.010;2022-09-16T22:27:03;101382.47;;;14.43
24714;BMP280;12820;51.580;5.010;2022-09-16T22:32:06;101384.97;;;14.44
24714;BMP280;12820;51.580;5.010;2022-09-16T22:37:08;101383.25;;;14.46
24714;BMP280;12820;51.580;5.010;2022-09-16T22:42:10;101381.50;;;14.48
24714;BMP280;12820;51.580;5.010;2022-09-16T22:47:12;101385.69;;;14.51
24714;BMP280;12820;51.580;5.010;2022-09-16T22:52:14;101384.81;;;14.52
24714;BMP280;12820;51.580;5.010;2022-09-16T22:57:16;101384.75;;;14.55
24714;BMP280;12820;51.580;5.010;2022-09-16T23:02:18;101382.22;;;14.55
24714;BMP280;12820;51.580;5.010;2022-09-16T23:07:20;101381.41;;;14.53
24714;BMP280;12820;51.580;5.010;2022-09-16T23:12:22;101384.03;;;14.50
24714;BMP280;12820;51.580;5.010;2022-09-16T23:17:24;101374.00;;;14.45
24714;BMP280;12820;51.580;5.010;2022-09-16T23:22:26;101372.44;;;14.40
24714;BMP280;12820;51.580;5.010;2022-09-16T23:27:28;101381.81;;;14.35
24714;BMP280;12820;51.580;5.010;2022-09-16T23:32:30;101376.84;;;14.31
24714;BMP280;12820;51.580;5.010;2022-09-16T23:37:32;101382.00;;;14.26
24714;BMP280;12820;51.580;5.010;2022-09-16T23:42:34;101374.59;;;14.18
24714;BMP280;12820;51.580;5.010;2022-09-16T23:47:37;101382.28;;;14.13
24714;BMP280;12820;51.580;5.010;2022-09-16T23:52:39;101397.50;;;14.09
24714;BMP280;12820;51.580;5.010;2022-09-16T23:57:41;101408.50;;;14.08
